createdAt,value
2023-01-19T00:00:57.445Z,-0.80
2023-01-19T00:04:00.282Z,-0.83
2023-01-19T00:07:05.256Z,-0.84
2023-01-19T00:10:09.481Z,-0.90
2023-01-19T00:13:12.345Z,-0.96
2023-01-19T00:16:17.589Z,-1.01
2023-01-19T00:19:20.493Z,-1.07
2023-01-19T00:22:24.618Z,-1.15
2023-01-19T00:25:27.394Z,-1.20
2023-01-19T00:28:30.205Z,-1.17
2023-01-19T00:31:34.096Z,-1.25
2023-01-19T00:34:39.542Z,-1.27
2023-01-19T00:37:46.030Z,-1.30
2023-01-19T00:40:49.243Z,-1.34
2023-01-19T00:43:52.054Z,-1.37
2023-01-19T00:46:54.914Z,-1.36
2023-01-19T00:50:00.117Z,-1.38
2023-01-19T00:53:05.567Z,-1.37
2023-01-19T00:56:10.449Z,-1.35
2023-01-19T00:59:13.492Z,-1.14
2023-01-19T01:02:16.757Z,-0.94
2023-01-19T01:05:21.014Z,-0.89
2023-01-19T01:08:25.930Z,-0.94
2023-01-19T01:11:28.670Z,-0.98
2023-01-19T01:14:31.580Z,-1.05
2023-01-19T01:17:34.508Z,-1.08
2023-01-19T01:20:37.430Z,-1.13
2023-01-19T01:23:41.878Z,-1.18
2023-01-19T01:26:44.763Z,-1.16
2023-01-19T01:29:47.630Z,-1.16
2023-01-19T01:32:50.774Z,-1.19
2023-01-19T01:35:54.129Z,-1.22
2023-01-19T01:38:58.528Z,-1.26
2023-01-19T01:42:01.466Z,-1.29
2023-01-19T01:45:09.052Z,-1.33
2023-01-19T01:48:17.519Z,-1.34
2023-01-19T01:51:25.075Z,-1.44
2023-01-19T01:54:32.157Z,-1.53
2023-01-19T01:57:37.927Z,-1.54
2023-01-19T02:00:59.378Z,-1.68
2023-01-19T02:04:02.391Z,-1.68
2023-01-19T02:07:22.681Z,-1.73
2023-01-19T02:10:44.505Z,-1.67
2023-01-19T02:13:48.027Z,-1.65
2023-01-19T02:16:50.877Z,-1.55
2023-01-19T02:19:55.957Z,-1.48
2023-01-19T02:23:04.146Z,-1.41
2023-01-19T02:26:11.125Z,-1.38
2023-01-19T02:29:17.342Z,-1.34
2023-01-19T02:32:20.205Z,-1.32
2023-01-19T02:35:24.321Z,-1.25
2023-01-19T02:38:29.267Z,-1.24
2023-01-19T02:41:39.859Z,-1.23
2023-01-19T02:44:48.251Z,-1.22
2023-01-19T02:47:53.203Z,-1.18
2023-01-19T02:51:04.426Z,-1.20
2023-01-19T02:54:18.556Z,-1.23
2023-01-19T02:57:43.696Z,-1.28
2023-01-19T03:00:55.234Z,-1.26
2023-01-19T03:04:07.758Z,-1.27
2023-01-19T03:07:15.509Z,-1.32
2023-01-19T03:10:25.219Z,-1.41
2023-01-19T03:13:35.577Z,-1.51
2023-01-19T03:16:43.344Z,-1.65
2023-01-19T03:19:50.482Z,-1.73
2023-01-19T03:23:00.559Z,-1.86
2023-01-19T03:26:07.350Z,-1.82
2023-01-19T03:29:13.426Z,-1.95
2023-01-19T03:32:19.085Z,-1.99
2023-01-19T03:35:25.742Z,-2.06
2023-01-19T03:38:29.792Z,-2.17
2023-01-19T03:41:35.227Z,-2.17
2023-01-19T03:44:41.994Z,-2.29
2023-01-19T03:47:45.499Z,-2.26
2023-01-19T03:50:48.675Z,-2.33
2023-01-19T03:53:53.649Z,-2.42
2023-01-19T03:56:59.059Z,-2.45
2023-01-19T04:00:03.200Z,-2.42
2023-01-19T04:03:06.524Z,-2.39
2023-01-19T04:06:09.884Z,-2.50
2023-01-19T04:09:12.774Z,-2.53
2023-01-19T04:12:16.184Z,-2.60
2023-01-19T04:15:20.533Z,-2.61
2023-01-19T04:18:23.279Z,-2.61
2023-01-19T04:21:26.022Z,-2.63
2023-01-19T04:24:28.839Z,-2.60
2023-01-19T04:27:31.522Z,-2.62
2023-01-19T04:30:35.618Z,-2.62
2023-01-19T04:33:38.337Z,-2.61
2023-01-19T04:36:41.180Z,-2.66
2023-01-19T04:39:44.092Z,-2.68
2023-01-19T04:42:47.246Z,-2.74
2023-01-19T04:45:51.882Z,-2.80
2023-01-19T04:48:54.705Z,-2.75
2023-01-19T04:51:57.445Z,-2.73
2023-01-19T04:55:00.325Z,-2.77
2023-01-19T04:58:02.986Z,-2.81
2023-01-19T05:01:10.145Z,-2.90
2023-01-19T05:04:12.917Z,-2.96
2023-01-19T05:07:15.650Z,-2.93
2023-01-19T05:10:18.740Z,-2.94
2023-01-19T05:13:21.577Z,-2.90
2023-01-19T05:16:25.897Z,-2.85
2023-01-19T05:19:28.790Z,-2.80
2023-01-19T05:22:31.622Z,-2.79
2023-01-19T05:25:34.398Z,-2.71
2023-01-19T05:28:38.034Z,-2.64
2023-01-19T05:31:42.524Z,-2.67
2023-01-19T05:34:45.804Z,-2.58
2023-01-19T05:37:48.477Z,-2.63
2023-01-19T05:40:51.346Z,-2.65
2023-01-19T05:43:54.467Z,-2.66
2023-01-19T05:46:58.575Z,-2.59
2023-01-19T05:50:01.422Z,-2.56
2023-01-19T05:53:04.403Z,-2.60
2023-01-19T05:56:09.326Z,-2.62
2023-01-19T05:59:12.802Z,-2.57
2023-01-19T06:02:17.036Z,-2.36
2023-01-19T06:05:19.921Z,-2.14
2023-01-19T06:08:22.597Z,-2.01
2023-01-19T06:11:26.134Z,-1.90
2023-01-19T06:14:28.987Z,-1.74
2023-01-19T06:17:34.529Z,-1.60
2023-01-19T06:20:38.067Z,-1.51
2023-01-19T06:23:41.057Z,-1.38
2023-01-19T06:26:44.322Z,-1.31
2023-01-19T06:29:47.651Z,-1.25
2023-01-19T06:32:51.993Z,-1.28
2023-01-19T06:35:55.670Z,-1.19
2023-01-19T06:38:58.918Z,-1.10
2023-01-19T06:42:02.156Z,-1.07
2023-01-19T06:45:10.692Z,-1.09
2023-01-19T06:48:20.017Z,-1.08
2023-01-19T06:51:24.120Z,-1.04
2023-01-19T06:54:27.244Z,-1.04
2023-01-19T06:57:30.014Z,-1.10
2023-01-19T07:00:32.876Z,-1.05
2023-01-19T07:03:38.575Z,-1.04
2023-01-19T07:06:41.597Z,-1.11
2023-01-19T07:09:44.332Z,-1.17
2023-01-19T07:12:47.462Z,-1.19
2023-01-19T07:15:50.416Z,-1.24
2023-01-19T07:18:54.512Z,-1.26
2023-01-19T07:21:57.885Z,-1.18
2023-01-19T07:25:01.713Z,-1.18
2023-01-19T07:28:04.719Z,-1.22
2023-01-19T07:31:07.656Z,-1.15
2023-01-19T07:34:12.633Z,-1.08
2023-01-19T07:37:15.538Z,-1.02
2023-01-19T07:40:18.723Z,-1.01
2023-01-19T07:43:21.410Z,-0.98
2023-01-19T07:46:24.748Z,-1.02
2023-01-19T07:49:29.809Z,-1.03
2023-01-19T07:52:32.563Z,-1.04
2023-01-19T07:55:35.727Z,-1.08
2023-01-19T07:58:38.614Z,-1.18
2023-01-19T08:01:41.769Z,-1.13
2023-01-19T08:04:48.821Z,-0.95
2023-01-19T08:07:54.066Z,-0.88
2023-01-19T08:10:57.079Z,-0.77
2023-01-19T08:14:00.252Z,-0.69
2023-01-19T08:17:04.138Z,-0.62
2023-01-19T08:20:11.464Z,-0.56
2023-01-19T08:23:14.447Z,-0.48
2023-01-19T08:26:21.268Z,-0.31
2023-01-19T08:29:24.187Z,0.58
2023-01-19T08:32:27.355Z,0.85
2023-01-19T08:35:31.586Z,0.77
2023-01-19T08:38:34.381Z,0.70
2023-01-19T08:41:37.531Z,0.69
2023-01-19T08:44:49.752Z,0.62
2023-01-19T08:48:00.074Z,0.61
2023-01-19T08:51:04.566Z,0.63
2023-01-19T08:54:07.429Z,0.72
2023-01-19T08:57:10.171Z,0.76
2023-01-19T09:00:14.335Z,0.89
2023-01-19T09:03:17.159Z,1.02
2023-01-19T09:06:21.455Z,1.07
2023-01-19T09:09:24.180Z,1.31
2023-01-19T09:12:27.331Z,1.49
2023-01-19T09:15:30.155Z,1.53
2023-01-19T09:18:32.910Z,1.60
2023-01-19T09:21:37.700Z,1.68
2023-01-19T09:24:40.715Z,1.69
2023-01-19T09:27:43.816Z,1.68
2023-01-19T09:30:46.647Z,1.79
2023-01-19T09:33:49.443Z,1.86
2023-01-19T09:36:53.819Z,1.81
2023-01-19T09:39:56.715Z,1.88
2023-01-19T09:43:12.604Z,1.88
2023-01-19T09:46:20.280Z,1.97
2023-01-19T09:49:32.736Z,2.07
2023-01-19T09:52:42.408Z,2.18
2023-01-19T09:55:45.681Z,2.32
2023-01-19T09:58:49.794Z,2.45
2023-01-19T10:02:24.817Z,2.62
2023-01-19T10:05:32.761Z,2.68
2023-01-19T10:08:44.099Z,2.74
2023-01-19T10:11:53.456Z,2.91
2023-01-19T10:15:04.077Z,3.08
2023-01-19T10:18:17.836Z,3.24
2023-01-19T10:21:24.759Z,3.41
2023-01-19T10:24:34.183Z,3.45
2023-01-19T10:27:38.908Z,3.53
2023-01-19T10:30:43.828Z,3.47
2023-01-19T10:33:47.123Z,3.51
2023-01-19T10:36:52.528Z,3.51
2023-01-19T10:39:59.228Z,3.47
2023-01-19T10:43:02.579Z,3.31
2023-01-19T10:46:17.542Z,3.28
2023-01-19T10:49:28.518Z,3.14
2023-01-19T10:52:34.336Z,3.11
2023-01-19T10:55:40.932Z,3.18
2023-01-19T10:58:44.003Z,3.21
2023-01-19T11:02:04.347Z,3.28
2023-01-19T11:05:24.219Z,3.46
2023-01-19T11:08:30.998Z,4.76
2023-01-19T11:11:43.755Z,5.23
2023-01-19T11:14:47.915Z,5.31
2023-01-19T11:17:53.583Z,5.02
2023-01-19T11:20:59.089Z,4.90
2023-01-19T11:24:05.395Z,4.78
2023-01-19T11:27:10.004Z,5.57
2023-01-19T11:30:20.483Z,5.67
2023-01-19T11:33:28.258Z,5.50
2023-01-19T11:36:32.846Z,5.16
2023-01-19T11:39:47.766Z,5.11
2023-01-19T11:42:52.201Z,5.69
2023-01-19T11:45:56.010Z,5.85
2023-01-19T11:49:03.906Z,5.78
2023-01-19T11:52:14.692Z,5.27
2023-01-19T11:55:23.642Z,4.82
2023-01-19T11:58:28.276Z,4.41
2023-01-19T12:01:34.191Z,4.18
2023-01-19T12:04:41.470Z,3.91
2023-01-19T12:07:46.938Z,3.68
2023-01-19T12:10:52.052Z,3.49
2023-01-19T12:13:56.180Z,3.46
2023-01-19T12:17:03.532Z,3.31
2023-01-19T12:20:15.226Z,3.18
2023-01-19T12:23:30.350Z,3.09
2023-01-19T12:26:38.192Z,3.00
2023-01-19T12:29:43.995Z,2.91
2023-01-19T12:32:47.086Z,2.82
2023-01-19T12:35:59.559Z,2.90
2023-01-19T12:39:04.243Z,2.87
2023-01-19T12:42:14.580Z,2.80
2023-01-19T12:45:25.696Z,2.75
2023-01-19T12:48:31.607Z,2.71
2023-01-19T12:51:34.687Z,2.82
2023-01-19T12:54:37.807Z,2.78
2023-01-19T12:57:47.681Z,2.67
2023-01-19T13:01:16.885Z,2.62
2023-01-19T13:04:33.569Z,2.52
2023-01-19T13:08:09.315Z,2.48
2023-01-19T13:11:18.259Z,2.50
2023-01-19T13:14:36.655Z,2.42
2023-01-19T13:17:50.950Z,2.37
2023-01-19T13:20:59.723Z,2.36
2023-01-19T13:24:04.527Z,2.28
2023-01-19T13:27:13.457Z,2.41
2023-01-19T13:30:21.513Z,2.31
2023-01-19T13:33:28.213Z,2.31
2023-01-19T13:36:34.112Z,2.38
2023-01-19T13:39:39.222Z,2.30
2023-01-19T13:42:43.832Z,2.35
2023-01-19T13:45:51.740Z,2.37
2023-01-19T13:49:00.620Z,2.41
2023-01-19T13:52:16.852Z,2.55
2023-01-19T13:55:20.596Z,2.57
2023-01-19T13:58:24.381Z,2.62
2023-01-19T14:01:29.488Z,2.63
2023-01-19T14:04:37.440Z,2.62
2023-01-19T14:07:40.775Z,2.71
2023-01-19T14:10:45.909Z,2.70
2023-01-19T14:13:49.051Z,2.74
2023-01-19T14:16:51.789Z,2.70
2023-01-19T14:19:58.088Z,2.68
2023-01-19T14:23:00.821Z,2.73
2023-01-19T14:26:03.615Z,2.79
2023-01-19T14:29:15.312Z,2.84
2023-01-19T14:32:20.481Z,2.86
2023-01-19T14:35:26.315Z,2.83
2023-01-19T14:38:29.320Z,2.87
2023-01-19T14:41:38.942Z,2.82
2023-01-19T14:44:42.185Z,2.81
2023-01-19T14:47:47.474Z,2.76
2023-01-19T14:51:03.502Z,2.73
2023-01-19T14:54:06.751Z,2.82
2023-01-19T14:57:13.591Z,2.85
2023-01-19T15:00:19.753Z,2.89
2023-01-19T15:03:26.845Z,2.82
2023-01-19T15:06:41.284Z,2.77
2023-01-19T15:09:44.173Z,2.75
2023-01-19T15:12:47.477Z,2.72
2023-01-19T15:15:51.255Z,2.72
2023-01-19T15:18:54.211Z,2.67
2023-01-19T15:21:58.292Z,2.67
2023-01-19T15:25:01.027Z,2.64
2023-01-19T15:28:04.196Z,2.64
2023-01-19T15:31:07.373Z,2.56
2023-01-19T15:34:12.961Z,2.42
2023-01-19T15:37:17.591Z,2.35
2023-01-19T15:40:23.258Z,2.26
2023-01-19T15:43:26.014Z,2.26
2023-01-19T15:46:28.754Z,2.28
2023-01-19T15:49:31.967Z,2.28
2023-01-19T15:52:36.105Z,2.25
2023-01-19T15:55:38.925Z,2.24
2023-01-19T15:58:41.888Z,2.27
2023-01-19T16:01:44.925Z,2.20
2023-01-19T16:04:49.606Z,2.11
2023-01-19T16:07:53.726Z,2.02
2023-01-19T16:10:56.580Z,2.03
2023-01-19T16:13:59.725Z,2.05
2023-01-19T16:17:02.539Z,2.02
2023-01-19T16:20:05.948Z,1.98
2023-01-19T16:23:14.867Z,1.93
2023-01-19T16:26:27.559Z,1.89
2023-01-19T16:29:30.868Z,1.86
2023-01-19T16:32:35.151Z,1.79
2023-01-19T16:35:37.906Z,1.71
2023-01-19T16:38:42.077Z,1.66
2023-01-19T16:41:46.112Z,1.60
2023-01-19T16:44:48.995Z,1.50
2023-01-19T16:47:52.303Z,1.46
2023-01-19T16:51:00.317Z,1.38
2023-01-19T16:54:04.999Z,1.26
2023-01-19T16:57:07.872Z,1.26
2023-01-19T17:00:12.308Z,1.24
2023-01-19T17:03:15.327Z,1.21
2023-01-19T17:06:20.585Z,1.26
2023-01-19T17:09:24.894Z,1.19
2023-01-19T17:12:27.734Z,1.15
2023-01-19T17:15:31.732Z,1.07
2023-01-19T17:18:36.207Z,1.04
2023-01-19T17:21:39.067Z,1.04
2023-01-19T17:24:43.762Z,1.08
2023-01-19T17:27:46.560Z,0.99
2023-01-19T17:30:51.308Z,0.93
2023-01-19T17:33:54.280Z,0.82
2023-01-19T17:37:02.862Z,0.77
2023-01-19T17:40:09.678Z,0.75
2023-01-19T17:43:12.586Z,0.78
2023-01-19T17:46:15.497Z,0.77
2023-01-19T17:49:18.384Z,0.70
2023-01-19T17:52:23.647Z,0.65
2023-01-19T17:55:27.944Z,0.63
2023-01-19T17:58:31.384Z,0.54
2023-01-19T18:01:37.838Z,0.58
2023-01-19T18:04:40.940Z,0.50
2023-01-19T18:07:45.566Z,0.41
2023-01-19T18:10:55.525Z,0.36
2023-01-19T18:13:58.448Z,0.33
2023-01-19T18:17:01.219Z,0.37
2023-01-19T18:20:04.652Z,0.29
2023-01-19T18:23:07.595Z,0.33
2023-01-19T18:26:14.232Z,0.39
2023-01-19T18:29:19.291Z,0.36
2023-01-19T18:32:22.283Z,0.39
2023-01-19T18:35:25.253Z,0.43
2023-01-19T18:38:28.338Z,0.48
2023-01-19T18:41:34.264Z,0.52
2023-01-19T18:44:38.339Z,0.57
2023-01-19T18:47:43.913Z,0.55
2023-01-19T18:50:46.820Z,0.54
2023-01-19T18:53:49.779Z,0.63
2023-01-19T18:56:54.981Z,0.63
2023-01-19T18:59:58.511Z,0.62
2023-01-19T19:03:01.918Z,0.60
2023-01-19T19:06:05.185Z,0.60
2023-01-19T19:09:08.677Z,0.68
2023-01-19T19:12:16.069Z,0.66
2023-01-19T19:15:19.449Z,0.69
2023-01-19T19:18:22.740Z,0.77
2023-01-19T19:21:26.272Z,0.74
2023-01-19T19:24:29.252Z,0.79
2023-01-19T19:27:33.924Z,0.88
2023-01-19T19:30:39.089Z,0.91
2023-01-19T19:33:42.406Z,0.96
2023-01-19T19:36:45.500Z,0.99
2023-01-19T19:39:49.176Z,1.00
2023-01-19T19:42:53.545Z,0.98
2023-01-19T19:46:00.477Z,1.01
2023-01-19T19:49:03.352Z,1.03
2023-01-19T19:52:06.365Z,1.08
2023-01-19T19:55:10.936Z,1.10
2023-01-19T19:58:15.062Z,1.10
2023-01-19T20:01:19.985Z,1.08
2023-01-19T20:04:25.385Z,1.06
2023-01-19T20:07:28.332Z,1.05
2023-01-19T20:10:32.064Z,1.03
2023-01-19T20:13:40.021Z,1.05
2023-01-19T20:16:43.292Z,0.97
2023-01-19T20:19:47.562Z,0.98
2023-01-19T20:22:50.496Z,1.05
2023-01-19T20:25:53.693Z,1.03
2023-01-19T20:29:02.534Z,0.99
2023-01-19T20:32:05.599Z,0.98
2023-01-19T20:35:08.590Z,1.00
2023-01-19T20:38:11.711Z,1.04
2023-01-19T20:41:15.360Z,1.02
2023-01-19T20:44:22.066Z,0.97
2023-01-19T20:47:25.884Z,0.97
2023-01-19T20:50:28.756Z,0.99
2023-01-19T20:53:32.443Z,1.01
2023-01-19T20:56:35.311Z,0.99
2023-01-19T20:59:40.889Z,0.97
2023-01-19T21:02:43.874Z,0.94
2023-01-19T21:05:48.360Z,0.86
2023-01-19T21:08:51.213Z,0.84
2023-01-19T21:11:55.930Z,0.89
2023-01-19T21:15:01.658Z,0.90
2023-01-19T21:18:04.505Z,0.87
2023-01-19T21:21:10.694Z,0.84
2023-01-19T21:24:17.875Z,0.82
2023-01-19T21:27:20.723Z,0.89
2023-01-19T21:30:25.293Z,0.86
2023-01-19T21:33:28.333Z,0.88
2023-01-19T21:36:31.159Z,0.88
2023-01-19T21:39:33.910Z,0.87
2023-01-19T21:42:36.693Z,0.83
2023-01-19T21:45:43.021Z,0.80
2023-01-19T21:48:46.830Z,0.73
2023-01-19T21:51:50.461Z,0.59
2023-01-19T21:54:54.088Z,0.60
2023-01-19T21:57:56.891Z,0.63
2023-01-19T22:01:01.862Z,0.64
2023-01-19T22:04:04.900Z,0.68
2023-01-19T22:07:07.818Z,0.60
2023-01-19T22:10:12.133Z,0.63
2023-01-19T22:13:14.987Z,0.57
2023-01-19T22:16:22.303Z,0.52
2023-01-19T22:19:25.727Z,0.43
2023-01-19T22:22:28.684Z,0.43
2023-01-19T22:25:36.344Z,0.39
2023-01-19T22:28:39.588Z,0.31
2023-01-19T22:31:45.772Z,0.30
2023-01-19T22:34:48.757Z,0.29
2023-01-19T22:37:51.564Z,0.25
2023-01-19T22:40:54.323Z,0.22
2023-01-19T22:43:59.366Z,0.20
2023-01-19T22:47:03.422Z,0.21
2023-01-19T22:50:07.327Z,0.12
2023-01-19T22:53:10.476Z,0.07
2023-01-19T22:56:14.934Z,0.07
2023-01-19T22:59:17.742Z,0.08
2023-01-19T23:02:21.860Z,0.12
2023-01-19T23:05:24.670Z,0.14
2023-01-19T23:08:27.412Z,0.19
2023-01-19T23:11:35.695Z,0.21
2023-01-19T23:14:39.129Z,0.29
2023-01-19T23:17:47.202Z,0.29
2023-01-19T23:20:50.248Z,0.28
2023-01-19T23:23:55.211Z,0.32
2023-01-19T23:26:57.996Z,0.37
2023-01-19T23:30:00.691Z,0.39
2023-01-19T23:33:05.066Z,0.49
2023-01-19T23:36:09.058Z,0.48
2023-01-19T23:39:14.973Z,0.51
2023-01-19T23:42:17.661Z,0.46
2023-01-19T23:45:20.420Z,0.52
2023-01-19T23:48:24.591Z,0.50
2023-01-19T23:51:29.606Z,0.54
2023-01-19T23:54:32.322Z,0.53
2023-01-19T23:57:35.043Z,0.57
